createdAt,value
2023-03-23T15:59:59.514Z,16.10
2023-03-23T16:02:48.517Z,16.10
2023-03-23T16:05:36.665Z,15.90
2023-03-23T16:08:26.174Z,15.80
2023-03-23T16:11:14.770Z,15.70
2023-03-23T16:14:03.239Z,15.70
2023-03-23T16:16:52.950Z,15.60
2023-03-23T16:19:41.243Z,15.50
2023-03-23T16:22:29.347Z,15.30
2023-03-23T16:25:19.080Z,15.00
2023-03-23T16:28:07.274Z,14.80
2023-03-23T16:30:55.410Z,14.70
2023-03-23T16:33:43.609Z,14.50
2023-03-23T16:36:31.716Z,14.40
2023-03-23T16:39:19.805Z,14.40
2023-03-23T16:42:09.257Z,14.40
2023-03-23T16:44:57.375Z,14.40
2023-03-23T16:47:45.731Z,14.40
2023-03-23T16:50:34.030Z,14.40
2023-03-23T16:53:22.591Z,14.40
2023-03-23T16:56:10.718Z,14.40
2023-03-23T16:59:00.233Z,14.30
2023-03-23T17:01:48.373Z,14.20
2023-03-23T17:04:37.256Z,14.20
2023-03-23T17:07:25.832Z,14.10
2023-03-23T17:10:14.420Z,14.10
2023-03-23T17:13:02.826Z,14.10
2023-03-23T17:15:53.700Z,14.00
2023-03-23T17:18:42.037Z,13.90
2023-03-23T17:21:30.216Z,13.90
2023-03-23T17:24:18.778Z,13.90
2023-03-23T17:27:06.888Z,13.80
2023-03-23T17:29:54.986Z,13.70
2023-03-23T17:32:44.812Z,13.70
2023-03-23T17:35:32.896Z,13.70
2023-03-23T17:38:21.073Z,13.70
2023-03-23T17:41:09.172Z,13.50
2023-03-23T17:43:57.285Z,13.50
2023-03-23T17:46:45.508Z,13.40
2023-03-23T17:49:35.410Z,13.40
2023-03-23T17:52:23.521Z,13.40
2023-03-23T17:55:11.833Z,13.30
2023-03-23T17:58:00.043Z,13.30
2023-03-23T18:00:48.217Z,13.20
2023-03-23T18:03:37.160Z,13.10
2023-03-23T18:06:26.723Z,13.10
2023-03-23T18:09:14.912Z,13.00
2023-03-23T18:12:03.197Z,13.00
2023-03-23T18:14:56.492Z,13.00
2023-03-23T18:17:48.057Z,13.00
2023-03-23T18:20:36.279Z,13.10
2023-03-23T18:23:25.820Z,13.00
2023-03-23T18:26:14.637Z,13.10
2023-03-23T18:29:02.896Z,13.10
2023-03-23T18:31:51.034Z,13.00
2023-03-23T18:34:41.598Z,13.00
2023-03-23T18:37:29.741Z,13.00
2023-03-23T18:40:20.029Z,13.00
2023-03-23T18:43:08.176Z,13.00
2023-03-23T18:45:57.023Z,13.10
2023-03-23T18:48:45.284Z,13.10
2023-03-23T18:51:33.469Z,13.10
2023-03-23T18:54:21.614Z,13.00
2023-03-23T18:57:11.104Z,13.10
2023-03-23T18:59:59.239Z,13.10
2023-03-23T19:02:47.420Z,13.10
2023-03-23T19:05:42.306Z,13.20
2023-03-23T19:08:31.046Z,13.20
2023-03-23T19:11:19.959Z,13.20
2023-03-23T19:14:09.436Z,13.10
2023-03-23T19:16:57.745Z,13.00
2023-03-23T19:19:45.850Z,13.10
2023-03-23T19:22:33.960Z,13.10
2023-03-23T19:25:22.509Z,13.00
2023-03-23T19:29:00.581Z,13.00
2023-03-23T19:31:22.726Z,13.00
2023-03-23T19:34:11.184Z,13.10
2023-03-23T19:37:05.318Z,13.00
2023-03-23T19:39:55.767Z,13.10
2023-03-23T19:42:44.332Z,12.90
2023-03-23T19:45:32.753Z,12.90
2023-03-23T19:48:22.216Z,12.90
2023-03-23T19:51:12.318Z,12.80
2023-03-23T19:54:00.742Z,12.80
2023-03-23T19:56:49.257Z,12.80
2023-03-23T19:59:38.072Z,12.70
2023-03-23T20:02:26.391Z,12.70
2023-03-23T20:05:16.601Z,12.60
2023-03-23T20:08:04.964Z,12.60
2023-03-23T20:10:53.369Z,12.50
2023-03-23T20:13:41.942Z,12.50
2023-03-23T20:16:30.113Z,12.40
2023-03-23T20:19:18.206Z,12.40
2023-03-23T20:22:07.938Z,12.30
2023-03-23T20:24:56.053Z,12.30
2023-03-23T20:27:45.417Z,12.30
2023-03-23T20:30:33.550Z,12.20
2023-03-23T20:33:21.647Z,12.20
2023-03-23T20:36:11.041Z,12.20
2023-03-23T20:39:01.303Z,12.10
2023-03-23T20:41:50.860Z,12.20
2023-03-23T20:44:39.614Z,12.20
2023-03-23T20:47:28.622Z,12.20
2023-03-23T20:50:17.417Z,12.20
2023-03-23T20:53:05.510Z,12.20
2023-03-23T20:55:55.345Z,12.20
2023-03-23T20:58:43.526Z,12.20
2023-03-23T21:01:33.151Z,12.30
2023-03-23T21:04:22.948Z,12.40
2023-03-23T21:07:12.732Z,12.40
2023-03-23T21:10:00.842Z,12.40
2023-03-23T21:12:50.361Z,12.40
2023-03-23T21:15:38.455Z,12.40
2023-03-23T21:18:26.587Z,12.30
2023-03-23T21:21:15.020Z,12.30
2023-03-23T21:24:03.586Z,12.30
2023-03-23T21:26:51.650Z,12.30
2023-03-23T21:29:41.103Z,12.30
2023-03-23T21:32:29.185Z,12.30
2023-03-23T21:35:17.433Z,12.30
2023-03-23T21:38:06.042Z,12.30
2023-03-23T21:40:54.460Z,12.30
2023-03-23T21:43:45.805Z,12.30
2023-03-23T21:46:35.280Z,12.20
2023-03-23T21:49:23.332Z,12.20
2023-03-23T21:52:11.417Z,12.20
2023-03-23T21:55:02.353Z,12.20
2023-03-23T21:57:50.496Z,12.10
2023-03-23T22:00:38.743Z,12.10
2023-03-23T22:03:32.224Z,12.00
2023-03-23T22:06:24.898Z,12.00
2023-03-23T22:09:12.988Z,12.00
2023-03-23T22:12:01.132Z,11.90
2023-03-23T22:14:49.303Z,11.90
2023-03-23T22:17:37.927Z,11.90
2023-03-23T22:20:27.619Z,11.80
2023-03-23T22:23:16.005Z,11.80
2023-03-23T22:26:04.145Z,11.70
2023-03-23T22:28:52.788Z,11.70
2023-03-23T22:31:41.883Z,11.70
2023-03-23T22:34:30.047Z,11.70
2023-03-23T22:37:19.644Z,11.70
2023-03-23T22:40:09.646Z,11.70
2023-03-23T22:42:57.720Z,11.70
2023-03-23T22:45:45.877Z,11.60
2023-03-23T22:48:33.994Z,11.60
2023-03-23T22:51:22.677Z,11.50
2023-03-23T22:54:12.309Z,11.50
2023-03-23T22:57:00.422Z,11.50
2023-03-23T22:59:48.860Z,11.50
2023-03-23T23:02:36.951Z,11.40
2023-03-23T23:05:25.056Z,11.40
2023-03-23T23:08:15.222Z,11.40
2023-03-23T23:11:06.625Z,11.40
2023-03-23T23:13:54.708Z,11.30
2023-03-23T23:16:42.858Z,11.30
2023-03-23T23:19:32.372Z,11.30
2023-03-23T23:22:20.501Z,11.30
2023-03-23T23:25:09.224Z,11.20
2023-03-23T23:27:59.566Z,11.20
2023-03-23T23:30:47.934Z,11.20
2023-03-23T23:33:36.399Z,11.20
2023-03-23T23:36:28.127Z,11.20
2023-03-23T23:39:16.432Z,11.20
2023-03-23T23:42:04.820Z,11.20
2023-03-23T23:44:54.234Z,11.20
2023-03-23T23:47:42.795Z,11.30
2023-03-23T23:50:31.324Z,11.30
2023-03-23T23:53:22.895Z,11.30
2023-03-23T23:56:11.873Z,11.30
2023-03-23T23:58:59.950Z,11.30
